Time,TemperatureF,DewpointF,PressureIn,WindDirection,WindDirectionDegrees,WindSpeedMPH,WindSpeedGustMPH,Humidity,HourlyPrecipIn,Conditions,Clouds,dailyrainin,SoftwareType,DateUTC
2013-11-12 00:00:00,36.2,33.3,29.93,West,276,5.0,12.0,89,0.00,,---,0.00,VWS V14.01,2013-11-12 05:00:00,
2013-11-12 00:01:00,36.2,33.3,29.93,West,276,5.0,12.0,89,0.00,,---,0.00,VWS V14.01,2013-11-12 05:01:00,
2013-11-12 00:05:00,36.0,33.1,29.93,West,280,5.0,12.0,89,0.00,,---,0.00,VWS V14.01,2013-11-12 05:05:00,
2013-11-12 00:06:00,36.0,33.1,29.93,West,280,5.0,12.0,89,0.00,,---,0.00,VWS V14.01,2013-11-12 05:06:00,
2013-11-12 00:10:00,35.8,33.2,29.93,WNW,284,8.0,13.0,90,0.00,,---,0.00,VWS V14.01,2013-11-12 05:10:00,
2013-11-12 00:11:00,35.8,33.2,29.93,WNW,284,8.0,13.0,90,0.00,,---,0.00,VWS V14.01,2013-11-12 05:11:00,
2013-11-12 00:15:00,35.6,33.2,29.93,WNW,283,11.0,14.0,91,0.00,,---,0.00,VWS V14.01,2013-11-12 05:15:00,
2013-11-12 00:16:00,35.6,33.2,29.93,WNW,283,11.0,14.0,91,0.00,,---,0.00,VWS V14.01,2013-11-12 05:16:00,
2013-11-12 00:20:00,35.4,33.3,29.94,NNW,348,17.0,24.0,92,0.00,,---,0.00,VWS V14.01,2013-11-12 05:20:00,
2013-11-12 00:21:00,35.4,33.3,29.94,NNW,348,17.0,24.0,92,0.00,,---,0.00,VWS V14.01,2013-11-12 05:21:00,
2013-11-12 00:25:00,33.1,30.8,29.94,WNW,295,13.0,25.0,91,0.00,,---,0.00,VWS V14.01,2013-11-12 05:25:00,
2013-11-12 00:30:00,32.1,30.3,29.94,WNW,294,10.0,18.0,93,0.00,,---,0.00,VWS V14.01,2013-11-12 05:30:00,
2013-11-12 00:31:00,32.1,30.3,29.94,WNW,294,10.0,18.0,93,0.00,,---,0.00,VWS V14.01,2013-11-12 05:31:00,
2013-11-12 00:35:00,31.7,30.2,29.94,NW,312,12.0,13.0,94,0.00,,---,0.00,VWS V14.01,2013-11-12 05:35:00,
2013-11-12 00:36:00,31.7,30.2,29.94,NW,312,12.0,13.0,94,0.00,,---,0.00,VWS V14.01,2013-11-12 05:36:00,
2013-11-12 00:40:00,31.6,30.3,29.94,WNW,298,7.0,15.0,95,0.00,,---,0.00,VWS V14.01,2013-11-12 05:40:00,
2013-11-12 00:41:00,31.6,30.3,29.94,WNW,298,7.0,15.0,95,0.00,,---,0.00,VWS V14.01,2013-11-12 05:41:00,
2013-11-12 00:45:00,31.5,30.2,29.94,West,278,7.0,11.0,95,0.00,,---,0.00,VWS V14.01,2013-11-12 05:45:00,
2013-11-12 00:46:00,31.5,30.2,29.94,West,278,7.0,11.0,95,0.00,,---,0.00,VWS V14.01,2013-11-12 05:46:00,
2013-11-12 00:50:00,31.4,30.1,29.94,WNW,292,11.0,19.0,95,0.00,,---,0.00,VWS V14.01,2013-11-12 05:50:00,
2013-11-12 00:51:00,31.4,30.1,29.94,WNW,292,11.0,19.0,95,0.00,,---,0.00,VWS V14.01,2013-11-12 05:51:00,
2013-11-12 00:55:00,31.2,29.9,29.94,WNW,294,15.0,16.0,95,0.00,,---,0.00,VWS V14.01,2013-11-12 05:55:00,
2013-11-12 00:56:00,31.2,29.9,29.94,WNW,294,15.0,16.0,95,0.00,,---,0.00,VWS V14.01,2013-11-12 05:56:00,
2013-11-12 01:00:00,31.1,29.8,29.95,WNW,286,9.0,23.0,95,0.00,,---,0.00,VWS V14.01,2013-11-12 06:00:00,
2013-11-12 01:01:00,31.1,29.8,29.95,WNW,286,9.0,23.0,95,0.00,,---,0.00,VWS V14.01,2013-11-12 06:01:00,
2013-11-12 01:05:00,30.9,29.6,29.94,WNW,294,9.0,18.0,95,0.00,,---,0.00,VWS V14.01,2013-11-12 06:05:00,
2013-11-12 01:10:00,30.7,29.4,29.95,NW,304,10.0,22.0,95,0.00,,---,0.00,VWS V14.01,2013-11-12 06:10:00,
2013-11-12 01:11:00,30.7,29.4,29.95,NW,304,10.0,22.0,95,0.00,,---,0.00,VWS V14.01,2013-11-12 06:11:00,
2013-11-12 01:15:00,30.5,29.2,29.94,West,278,13.0,18.0,95,0.00,,---,0.00,VWS V14.01,2013-11-12 06:15:00,
2013-11-12 01:16:00,30.5,29.2,29.94,West,278,13.0,18.0,95,0.00,,---,0.00,VWS V14.01,2013-11-12 06:16:00,
2013-11-12 01:20:00,30.5,29.2,29.95,NW,305,12.0,17.0,95,0.00,,---,0.00,VWS V14.01,2013-11-12 06:20:00,
2013-11-12 01:21:00,30.5,29.2,29.95,NW,305,12.0,17.0,95,0.00,,---,0.00,VWS V14.01,2013-11-12 06:21:00,
2013-11-12 01:25:00,30.4,29.1,29.95,WNW,283,14.0,18.0,95,0.00,,---,0.00,VWS V14.01,2013-11-12 06:25:00,
2013-11-12 01:26:00,30.4,29.1,29.95,WNW,283,14.0,18.0,95,0.00,,---,0.00,VWS V14.01,2013-11-12 06:26:00,
2013-11-12 01:30:00,30.4,29.1,29.95,WNW,288,11.0,21.0,95,0.00,,---,0.00,VWS V14.01,2013-11-12 06:30:00,
2013-11-12 01:31:00,30.4,29.1,29.95,WNW,288,11.0,21.0,95,0.00,,---,0.00,VWS V14.01,2013-11-12 06:31:00,
2013-11-12 01:35:00,30.3,29.0,29.96,NW,314,9.0,19.0,95,0.00,,---,0.00,VWS V14.01,2013-11-12 06:35:00,
2013-11-12 01:36:00,30.3,29.0,29.96,NW,314,9.0,19.0,95,0.00,,---,0.00,VWS V14.01,2013-11-12 06:36:00,
2013-11-12 01:40:00,30.2,28.9,29.96,West,267,14.0,18.0,95,0.00,,---,0.00,VWS V14.01,2013-11-12 06:40:00,
2013-11-12 01:41:00,30.2,28.9,29.96,West,267,14.0,18.0,95,0.00,,---,0.00,VWS V14.01,2013-11-12 06:41:00,
2013-11-12 01:45:00,30.1,28.8,29.96,NW,314,10.0,18.0,95,0.00,,---,0.00,VWS V14.01,2013-11-12 06:45:00,
2013-11-12 01:46:00,30.1,28.8,29.96,NW,314,10.0,18.0,95,0.00,,---,0.00,VWS V14.01,2013-11-12 06:46:00,
2013-11-12 01:50:00,29.9,28.6,29.96,WNW,287,12.0,21.0,95,0.00,,---,0.00,VWS V14.01,2013-11-12 06:50:00,
2013-11-12 01:51:00,29.9,28.6,29.96,WNW,287,12.0,21.0,95,0.00,,---,0.00,VWS V14.01,2013-11-12 06:51:00,
2013-11-12 01:55:00,29.8,28.5,29.96,NW,304,13.0,20.0,95,0.00,,---,0.00,VWS V14.01,2013-11-12 06:55:00,
2013-11-12 01:56:00,29.8,28.5,29.96,NW,304,13.0,20.0,95,0.00,,---,0.00,VWS V14.01,2013-11-12 06:56:00,
2013-11-12 02:00:00,29.6,28.4,29.96,NW,312,11.0,18.0,95,0.00,,---,0.00,VWS V14.01,2013-11-12 07:00:00,
2013-11-12 02:01:00,29.6,28.4,29.96,NW,312,11.0,18.0,95,0.00,,---,0.00,VWS V14.01,2013-11-12 07:01:00,
2013-11-12 02:05:00,29.5,28.2,29.96,NW,313,13.0,18.0,95,0.00,,---,0.00,VWS V14.01,2013-11-12 07:05:00,
2013-11-12 02:10:00,29.2,28.0,29.96,NNW,329,17.0,23.0,95,0.00,,---,0.00,VWS V14.01,2013-11-12 07:10:00,
2013-11-12 02:11:00,29.2,28.0,29.96,NNW,329,17.0,23.0,95,0.00,,---,0.00,VWS V14.01,2013-11-12 07:11:00,
2013-11-12 02:15:00,29.2,28.0,29.96,WNW,291,17.0,20.0,95,0.00,,---,0.00,VWS V14.01,2013-11-12 07:15:00,
2013-11-12 02:16:00,29.2,28.0,29.96,WNW,291,17.0,20.0,95,0.00,,---,0.00,VWS V14.01,2013-11-12 07:16:00,
2013-11-12 02:20:00,29.0,27.8,29.96,WNW,295,21.0,23.0,95,0.00,,---,0.00,VWS V14.01,2013-11-12 07:20:00,
2013-11-12 02:21:00,29.0,27.8,29.96,WNW,295,21.0,23.0,95,0.00,,---,0.00,VWS V14.01,2013-11-12 07:21:00,
2013-11-12 02:25:00,28.7,27.5,29.96,NW,305,9.0,25.0,95,0.00,,---,0.00,VWS V14.01,2013-11-12 07:25:00,
2013-11-12 02:26:00,28.7,27.5,29.96,NW,305,9.0,25.0,95,0.00,,---,0.00,VWS V14.01,2013-11-12 07:26:00,
2013-11-12 02:30:00,28.2,27.0,29.97,NW,308,23.0,23.0,95,0.00,,---,0.00,VWS V14.01,2013-11-12 07:30:00,
2013-11-12 02:31:00,28.2,27.0,29.97,NW,308,23.0,23.0,95,0.00,,---,0.00,VWS V14.01,2013-11-12 07:31:00,
2013-11-12 02:35:00,27.9,26.7,29.97,NNW,342,17.0,23.0,95,0.00,,---,0.00,VWS V14.01,2013-11-12 07:35:00,
2013-11-12 02:36:00,27.9,26.7,29.97,NNW,342,17.0,23.0,95,0.00,,---,0.00,VWS V14.01,2013-11-12 07:36:00,
2013-11-12 02:40:00,27.8,26.6,29.97,WNW,292,11.0,20.0,95,0.00,,---,0.00,VWS V14.01,2013-11-12 07:40:00,
2013-11-12 02:41:00,27.8,26.6,29.97,WNW,292,11.0,20.0,95,0.00,,---,0.00,VWS V14.01,2013-11-12 07:41:00,
2013-11-12 02:45:00,27.7,26.5,29.97,WNW,285,14.0,19.0,95,0.00,,---,0.00,VWS V14.01,2013-11-12 07:45:00,
2013-11-12 02:46:00,27.7,26.5,29.97,WNW,285,14.0,19.0,95,0.00,,---,0.00,VWS V14.01,2013-11-12 07:46:00,
2013-11-12 02:50:00,27.6,26.4,29.98,NNW,342,14.0,21.0,95,0.00,,---,0.00,VWS V14.01,2013-11-12 07:50:00,
2013-11-12 02:51:00,27.6,26.4,29.98,NNW,342,14.0,21.0,95,0.00,,---,0.00,VWS V14.01,2013-11-12 07:51:00,
2013-11-12 02:55:00,27.5,26.3,29.98,WNW,301,11.0,20.0,95,0.00,,---,0.00,VWS V14.01,2013-11-12 07:55:00,
2013-11-12 02:56:00,27.5,26.3,29.98,WNW,301,11.0,20.0,95,0.00,,---,0.00,VWS V14.01,2013-11-12 07:56:00,
2013-11-12 03:00:00,27.4,26.2,29.98,NW,305,11.0,22.0,95,0.00,,---,0.00,VWS V14.01,2013-11-12 08:00:00,
2013-11-12 03:01:00,27.4,26.2,29.98,NW,305,11.0,22.0,95,0.00,,---,0.00,VWS V14.01,2013-11-12 08:01:00,
2013-11-12 03:05:00,27.4,26.2,29.98,WNW,296,13.0,17.0,95,0.00,,---,0.00,VWS V14.01,2013-11-12 08:05:00,
2013-11-12 03:06:00,27.4,26.2,29.98,WNW,296,13.0,17.0,95,0.00,,---,0.00,VWS V14.01,2013-11-12 08:06:00,
2013-11-12 03:10:00,27.2,26.0,29.98,WNW,294,8.0,21.0,95,0.00,,---,0.00,VWS V14.01,2013-11-12 08:10:00,
2013-11-12 03:11:00,27.2,26.0,29.98,WNW,294,8.0,21.0,95,0.00,,---,0.00,VWS V14.01,2013-11-12 08:11:00,
2013-11-12 03:15:00,27.2,26.0,29.98,NW,315,15.0,19.0,95,0.00,,---,0.00,VWS V14.01,2013-11-12 08:15:00,
2013-11-12 03:16:00,27.2,26.0,29.98,NW,315,15.0,19.0,95,0.00,,---,0.00,VWS V14.01,2013-11-12 08:16:00,
2013-11-12 03:20:00,27.1,25.9,29.99,WNW,297,13.0,17.0,95,0.00,,---,0.00,VWS V14.01,2013-11-12 08:20:00,
2013-11-12 03:21:00,27.1,25.9,29.99,WNW,297,13.0,17.0,95,0.00,,---,0.00,VWS V14.01,2013-11-12 08:21:00,
2013-11-12 03:25:00,26.9,25.7,29.99,NW,305,14.0,30.0,95,0.00,,---,0.00,VWS V14.01,2013-11-12 08:25:00,
2013-11-12 03:26:00,26.9,25.7,29.99,NW,305,14.0,30.0,95,0.00,,---,0.00,VWS V14.01,2013-11-12 08:26:00,
2013-11-12 03:30:00,26.7,25.2,29.99,WNW,301,16.0,22.0,94,0.00,,---,0.00,VWS V14.01,2013-11-12 08:30:00,
2013-11-12 03:31:00,26.7,25.2,29.99,WNW,301,16.0,22.0,94,0.00,,---,0.00,VWS V14.01,2013-11-12 08:31:00,
2013-11-12 03:35:00,26.7,25.2,29.99,WNW,283,15.0,21.0,94,0.00,,---,0.00,VWS V14.01,2013-11-12 08:35:00,
2013-11-12 03:36:00,26.7,25.2,29.99,WNW,283,15.0,21.0,94,0.00,,---,0.00,VWS V14.01,2013-11-12 08:36:00,
2013-11-12 03:40:00,26.6,25.4,30.00,WNW,295,5.0,19.0,95,0.00,,---,0.00,VWS V14.01,2013-11-12 08:40:00,
2013-11-12 03:41:00,26.6,25.4,30.00,WNW,295,5.0,19.0,95,0.00,,---,0.00,VWS V14.01,2013-11-12 08:41:00,
2013-11-12 03:45:00,26.7,25.5,30.00,NW,314,11.0,15.0,95,0.00,,---,0.00,VWS V14.01,2013-11-12 08:45:00,
2013-11-12 03:46:00,26.7,25.5,30.00,NW,314,11.0,15.0,95,0.00,,---,0.00,VWS V14.01,2013-11-12 08:46:00,
2013-11-12 03:50:00,26.7,25.5,30.00,NW,319,9.0,17.0,95,0.00,,---,0.00,VWS V14.01,2013-11-12 08:50:00,
2013-11-12 03:51:00,26.7,25.5,30.00,NW,319,9.0,17.0,95,0.00,,---,0.00,VWS V14.01,2013-11-12 08:51:00,
2013-11-12 03:55:00,26.6,25.4,30.00,NW,314,10.0,14.0,95,0.00,,---,0.00,VWS V14.01,2013-11-12 08:55:00,
2013-11-12 03:56:00,26.6,25.4,30.00,NW,314,10.0,14.0,95,0.00,,---,0.00,VWS V14.01,2013-11-12 08:56:00,
2013-11-12 04:00:00,26.2,24.7,30.00,NW,314,12.0,25.0,94,0.00,,---,0.00,VWS V14.01,2013-11-12 09:00:00,
2013-11-12 04:01:00,26.2,24.7,30.00,NW,314,12.0,25.0,94,0.00,,---,0.00,VWS V14.01,2013-11-12 09:01:00,
2013-11-12 04:05:00,25.9,24.4,30.00,WNW,293,12.0,22.0,94,0.00,,---,0.00,VWS V14.01,2013-11-12 09:05:00,
2013-11-12 04:10:00,25.6,24.1,30.01,NW,312,11.0,21.0,94,0.00,,---,0.00,VWS V14.01,2013-11-12 09:10:00,
2013-11-12 04:11:00,25.6,24.1,30.01,NW,312,11.0,21.0,94,0.00,,---,0.00,VWS V14.01,2013-11-12 09:11:00,
2013-11-12 04:15:00,25.4,23.9,30.01,WNW,302,13.0,19.0,94,0.00,,---,0.00,VWS V14.01,2013-11-12 09:15:00,
2013-11-12 04:16:00,25.4,23.9,30.01,WNW,302,13.0,19.0,94,0.00,,---,0.00,VWS V14.01,2013-11-12 09:16:00,
2013-11-12 04:20:00,25.2,23.7,30.01,NW,308,20.0,26.0,94,0.00,,---,0.00,VWS V14.01,2013-11-12 09:20:00,
2013-11-12 04:25:00,24.8,23.1,30.02,NW,319,13.0,24.0,93,0.00,,---,0.00,VWS V14.01,2013-11-12 09:25:00,
2013-11-12 04:26:00,24.8,23.1,30.02,NW,319,13.0,24.0,93,0.00,,---,0.00,VWS V14.01,2013-11-12 09:26:00,
2013-11-12 04:30:00,24.7,23.0,30.02,NW,319,8.0,18.0,93,0.00,,---,0.00,VWS V14.01,2013-11-12 09:30:00,
2013-11-12 04:31:00,24.7,23.0,30.02,NW,319,8.0,18.0,93,0.00,,---,0.00,VWS V14.01,2013-11-12 09:31:00,
2013-11-12 04:35:00,24.7,23.2,30.02,NW,315,17.0,19.0,94,0.00,,---,0.00,VWS V14.01,2013-11-12 09:35:00,
2013-11-12 04:36:00,24.7,23.2,30.02,NW,315,17.0,19.0,94,0.00,,---,0.00,VWS V14.01,2013-11-12 09:36:00,
2013-11-12 04:40:00,24.7,23.2,30.02,NW,318,8.0,24.0,94,0.00,,---,0.00,VWS V14.01,2013-11-12 09:40:00,
2013-11-12 04:45:00,24.6,22.9,30.02,NNW,331,9.0,22.0,93,0.00,,---,0.00,VWS V14.01,2013-11-12 09:45:00,
2013-11-12 04:46:00,24.6,22.9,30.02,NNW,331,9.0,22.0,93,0.00,,---,0.00,VWS V14.01,2013-11-12 09:46:00,
2013-11-12 04:50:00,24.6,22.9,30.02,NW,326,18.0,19.0,93,0.00,,---,0.00,VWS V14.01,2013-11-12 09:50:00,
2013-11-12 04:51:00,24.6,22.9,30.02,NW,326,18.0,19.0,93,0.00,,---,0.00,VWS V14.01,2013-11-12 09:51:00,
2013-11-12 04:55:00,24.4,22.7,30.02,NW,307,10.0,21.0,93,0.00,,---,0.00,VWS V14.01,2013-11-12 09:55:00,
2013-11-12 04:56:00,24.4,22.7,30.02,NW,307,10.0,21.0,93,0.00,,---,0.00,VWS V14.01,2013-11-12 09:56:00,
2013-11-12 05:00:00,24.2,22.2,30.03,NNW,335,15.0,20.0,92,0.00,,---,0.00,VWS V14.01,2013-11-12 10:00:00,
2013-11-12 05:01:00,24.2,22.2,30.03,NNW,335,15.0,20.0,92,0.00,,---,0.00,VWS V14.01,2013-11-12 10:01:00,
2013-11-12 05:05:00,24.0,22.0,30.03,NW,318,17.0,22.0,92,0.00,,---,0.00,VWS V14.01,2013-11-12 10:05:00,
2013-11-12 05:06:00,24.0,22.0,30.03,NW,318,17.0,22.0,92,0.00,,---,0.00,VWS V14.01,2013-11-12 10:06:00,
2013-11-12 05:10:00,23.8,21.6,30.03,NW,308,10.0,28.0,91,0.00,,---,0.00,VWS V14.01,2013-11-12 10:10:00,
2013-11-12 05:11:00,23.8,21.6,30.03,NW,308,10.0,28.0,91,0.00,,---,0.00,VWS V14.01,2013-11-12 10:11:00,
2013-11-12 05:15:00,23.8,21.6,30.04,WNW,292,17.0,24.0,91,0.00,,---,0.00,VWS V14.01,2013-11-12 10:15:00,
2013-11-12 05:16:00,23.8,21.6,30.04,WNW,292,17.0,24.0,91,0.00,,---,0.00,VWS V14.01,2013-11-12 10:16:00,
2013-11-12 05:20:00,23.7,21.2,30.04,WNW,295,13.0,26.0,90,0.00,,---,0.00,VWS V14.01,2013-11-12 10:20:00,
2013-11-12 05:21:00,23.7,21.2,30.04,WNW,295,13.0,26.0,90,0.00,,---,0.00,VWS V14.01,2013-11-12 10:21:00,
2013-11-12 05:25:00,23.6,21.1,30.04,WNW,290,19.0,24.0,90,0.00,,---,0.00,VWS V14.01,2013-11-12 10:25:00,
2013-11-12 05:26:00,23.6,21.1,30.04,WNW,290,19.0,24.0,90,0.00,,---,0.00,VWS V14.01,2013-11-12 10:26:00,
2013-11-12 05:30:00,23.6,21.1,30.04,WNW,300,16.0,19.0,90,0.00,,---,0.00,VWS V14.01,2013-11-12 10:30:00,
2013-11-12 05:31:00,23.6,21.1,30.04,WNW,300,16.0,19.0,90,0.00,,---,0.00,VWS V14.01,2013-11-12 10:31:00,
2013-11-12 05:35:00,23.6,20.8,30.04,WNW,302,11.0,26.0,89,0.00,,---,0.00,VWS V14.01,2013-11-12 10:35:00,
2013-11-12 05:36:00,23.6,20.8,30.04,WNW,302,11.0,26.0,89,0.00,,---,0.00,VWS V14.01,2013-11-12 10:36:00,
2013-11-12 05:40:00,23.5,21.0,30.04,WNW,288,18.0,21.0,90,0.00,,---,0.00,VWS V14.01,2013-11-12 10:40:00,
2013-11-12 05:41:00,23.5,21.0,30.04,WNW,288,18.0,21.0,90,0.00,,---,0.00,VWS V14.01,2013-11-12 10:41:00,
2013-11-12 05:45:00,23.4,20.6,30.05,NW,304,12.0,18.0,89,0.00,,---,0.00,VWS V14.01,2013-11-12 10:45:00,
2013-11-12 05:46:00,23.4,20.6,30.05,NW,304,12.0,18.0,89,0.00,,---,0.00,VWS V14.01,2013-11-12 10:46:00,
2013-11-12 05:50:00,23.3,20.5,30.05,NW,321,7.0,19.0,89,0.00,,---,0.00,VWS V14.01,2013-11-12 10:50:00,
2013-11-12 05:51:00,23.3,20.5,30.05,NW,321,7.0,19.0,89,0.00,,---,0.00,VWS V14.01,2013-11-12 10:51:00,
2013-11-12 05:55:00,23.2,20.4,30.05,WNW,295,8.0,18.0,89,0.00,,---,0.00,VWS V14.01,2013-11-12 10:55:00,
2013-11-12 05:56:00,23.2,20.5,30.05,WNW,295,8.0,18.0,89,0.00,,---,0.00,VWS V14.01,2013-11-12 10:56:00,
2013-11-12 06:00:00,23.1,20.1,30.05,NW,319,7.0,17.0,88,0.00,,---,0.00,VWS V14.01,2013-11-12 11:00:00,
2013-11-12 06:01:00,23.1,20.1,30.05,NW,319,7.0,17.0,88,0.00,,---,0.00,VWS V14.01,2013-11-12 11:01:00,
2013-11-12 06:05:00,22.9,19.9,30.05,WNW,295,10.0,17.0,88,0.00,,---,0.00,VWS V14.01,2013-11-12 11:05:00,
2013-11-12 06:10:00,22.7,19.4,30.06,NW,319,7.0,19.0,87,0.00,,---,0.00,VWS V14.01,2013-11-12 11:10:00,
2013-11-12 06:11:00,22.7,19.4,30.06,NW,319,7.0,19.0,87,0.00,,---,0.00,VWS V14.01,2013-11-12 11:11:00,
2013-11-12 06:15:00,22.5,19.5,30.06,NW,305,13.0,19.0,88,0.00,,---,0.00,VWS V14.01,2013-11-12 11:15:00,
2013-11-12 06:16:00,22.5,19.5,30.06,NW,305,13.0,19.0,88,0.00,,---,0.00,VWS V14.01,2013-11-12 11:16:00,
2013-11-12 06:20:00,22.3,19.3,30.06,NW,318,6.0,20.0,88,0.00,,---,0.00,VWS V14.01,2013-11-12 11:20:00,
2013-11-12 06:21:00,22.3,19.3,30.06,NW,318,6.0,20.0,88,0.00,,---,0.00,VWS V14.01,2013-11-12 11:21:00,
2013-11-12 06:25:00,22.2,19.2,30.06,NW,323,8.0,14.0,88,0.00,,---,0.00,VWS V14.01,2013-11-12 11:25:00,
2013-11-12 06:26:00,22.2,19.2,30.06,NW,323,8.0,14.0,88,0.00,,---,0.00,VWS V14.01,2013-11-12 11:26:00,
2013-11-12 06:30:00,22.1,19.1,30.07,WNW,300,8.0,15.0,88,0.00,,---,0.00,VWS V14.01,2013-11-12 11:30:00,
2013-11-12 06:31:00,22.1,19.1,30.07,WNW,300,8.0,15.0,88,0.00,,---,0.00,VWS V14.01,2013-11-12 11:31:00,
2013-11-12 06:35:00,21.9,18.9,30.07,WNW,300,8.0,17.0,88,0.00,,---,0.00,VWS V14.01,2013-11-12 11:35:00,
2013-11-12 06:36:00,21.9,18.9,30.07,WNW,300,8.0,17.0,88,0.00,,---,0.00,VWS V14.01,2013-11-12 11:36:00,
2013-11-12 06:40:00,21.9,18.9,30.07,North,352,13.0,20.0,88,0.00,,---,0.00,VWS V14.01,2013-11-12 11:40:00,
2013-11-12 06:41:00,21.9,18.9,30.07,North,352,13.0,20.0,88,0.00,,---,0.00,VWS V14.01,2013-11-12 11:41:00,
2013-11-12 06:45:00,21.8,18.8,30.07,NW,308,11.0,19.0,88,0.00,,---,0.00,VWS V14.01,2013-11-12 11:45:00,
2013-11-12 06:46:00,21.8,18.8,30.07,NW,308,11.0,19.0,88,0.00,,---,0.00,VWS V14.01,2013-11-12 11:46:00,
2013-11-12 06:50:00,21.7,18.7,30.08,NW,323,5.0,15.0,88,0.00,,---,0.00,VWS V14.01,2013-11-12 11:50:00,
2013-11-12 06:51:00,21.7,18.7,30.08,NW,323,5.0,15.0,88,0.00,,---,0.00,VWS V14.01,2013-11-12 11:51:00,
2013-11-12 06:55:00,21.7,18.7,30.08,NW,305,8.0,14.0,88,0.00,,---,0.00,VWS V14.01,2013-11-12 11:55:00,
2013-11-12 06:56:00,21.7,18.7,30.08,NW,305,8.0,14.0,88,0.00,,---,0.00,VWS V14.01,2013-11-12 11:56:00,
2013-11-12 07:00:00,21.6,18.6,30.08,WNW,293,14.0,21.0,88,0.00,,---,0.00,VWS V14.01,2013-11-12 12:00:00,
2013-11-12 07:01:00,21.6,18.6,30.08,WNW,293,14.0,21.0,88,0.00,,---,0.00,VWS V14.01,2013-11-12 12:01:00,
2013-11-12 07:05:00,21.6,18.6,30.08,NW,310,9.0,18.0,88,0.00,,---,0.00,VWS V14.01,2013-11-12 12:05:00,
2013-11-12 07:06:00,21.6,18.6,30.08,NW,310,9.0,18.0,88,0.00,,---,0.00,VWS V14.01,2013-11-12 12:06:00,
2013-11-12 07:10:00,21.6,18.6,30.08,WNW,293,15.0,15.0,88,0.00,,---,0.00,VWS V14.01,2013-11-12 12:10:00,
2013-11-12 07:11:00,21.6,18.6,30.08,WNW,293,15.0,15.0,88,0.00,,---,0.00,VWS V14.01,2013-11-12 12:11:00,
2013-11-12 07:15:00,21.5,18.2,30.08,NW,314,19.0,25.0,87,0.00,,---,0.00,VWS V14.01,2013-11-12 12:15:00,
2013-11-12 07:16:00,21.5,18.2,30.08,NW,314,19.0,25.0,87,0.00,,---,0.00,VWS V14.01,2013-11-12 12:16:00,
2013-11-12 07:20:00,21.4,18.1,30.08,WNW,302,13.0,22.0,87,0.00,,---,0.00,VWS V14.01,2013-11-12 12:20:00,
2013-11-12 07:21:00,21.4,18.1,30.08,WNW,302,13.0,22.0,87,0.00,,---,0.00,VWS V14.01,2013-11-12 12:21:00,
2013-11-12 07:25:00,21.4,18.1,30.08,WNW,300,13.0,22.0,87,0.00,,---,0.00,VWS V14.01,2013-11-12 12:25:00,
2013-11-12 07:26:00,21.4,18.1,30.08,WNW,300,13.0,22.0,87,0.00,,---,0.00,VWS V14.01,2013-11-12 12:26:00,
2013-11-12 07:30:00,21.3,18.3,30.08,WNW,302,13.0,21.0,88,0.00,,---,0.00,VWS V14.01,2013-11-12 12:30:00,
2013-11-12 07:31:00,21.3,18.3,30.08,WNW,302,13.0,21.0,88,0.00,,---,0.00,VWS V14.01,2013-11-12 12:31:00,
2013-11-12 07:35:00,21.2,18.2,30.09,WNW,293,18.0,23.0,88,0.00,,---,0.00,VWS V14.01,2013-11-12 12:35:00,
2013-11-12 07:36:00,21.2,18.2,30.09,WNW,293,18.0,23.0,88,0.00,,---,0.00,VWS V14.01,2013-11-12 12:36:00,
2013-11-12 07:40:00,21.2,18.2,30.09,NW,315,11.0,23.0,88,0.00,,---,0.00,VWS V14.01,2013-11-12 12:40:00,
2013-11-12 07:41:00,21.2,18.2,30.09,NW,315,11.0,23.0,88,0.00,,---,0.00,VWS V14.01,2013-11-12 12:41:00,
2013-11-12 07:45:00,21.2,18.2,30.09,WNW,295,18.0,23.0,88,0.00,,---,0.00,VWS V14.01,2013-11-12 12:45:00,
2013-11-12 07:46:00,21.2,18.2,30.09,WNW,295,18.0,23.0,88,0.00,,---,0.00,VWS V14.01,2013-11-12 12:46:00,
2013-11-12 07:50:00,21.2,18.5,30.09,WNW,295,9.0,18.0,89,0.00,,---,0.00,VWS V14.01,2013-11-12 12:50:00,
2013-11-12 07:51:00,21.2,18.5,30.09,WNW,295,9.0,18.0,89,0.00,,---,0.00,VWS V14.01,2013-11-12 12:51:00,
2013-11-12 07:55:00,21.2,18.5,30.09,WNW,298,12.0,23.0,89,0.00,,---,0.00,VWS V14.01,2013-11-12 12:55:00,
2013-11-12 07:56:00,21.2,18.5,30.09,WNW,298,12.0,23.0,89,0.00,,---,0.00,VWS V14.01,2013-11-12 12:56:00,
2013-11-12 08:00:00,21.2,18.5,30.09,NW,305,13.0,26.0,89,0.00,,---,0.00,VWS V14.01,2013-11-12 13:00:00,
2013-11-12 08:01:00,21.2,18.5,30.09,NW,305,13.0,26.0,89,0.00,,---,0.00,VWS V14.01,2013-11-12 13:01:00,
2013-11-12 08:05:00,21.2,18.5,30.10,WNW,287,18.0,23.0,89,0.00,,---,0.00,VWS V14.01,2013-11-12 13:05:00,
2013-11-12 08:06:00,21.2,18.5,30.10,WNW,287,18.0,23.0,89,0.00,,---,0.00,VWS V14.01,2013-11-12 13:06:00,
2013-11-12 08:10:00,21.3,18.6,30.10,WNW,294,20.0,23.0,89,0.00,,---,0.00,VWS V14.01,2013-11-12 13:10:00,
2013-11-12 08:11:00,21.3,18.6,30.10,WNW,294,20.0,23.0,89,0.00,,---,0.00,VWS V14.01,2013-11-12 13:11:00,
2013-11-12 08:15:00,21.2,18.5,30.10,WNW,292,19.0,23.0,89,0.00,,---,0.00,VWS V14.01,2013-11-12 13:15:00,
2013-11-12 08:16:00,21.2,18.5,30.10,WNW,292,19.0,23.0,89,0.00,,---,0.00,VWS V14.01,2013-11-12 13:16:00,
2013-11-12 08:20:00,21.2,18.5,30.10,NW,315,14.0,19.0,89,0.00,,---,0.00,VWS V14.01,2013-11-12 13:20:00,
2013-11-12 08:21:00,21.2,18.5,30.10,NW,315,14.0,19.0,89,0.00,,---,0.00,VWS V14.01,2013-11-12 13:21:00,
2013-11-12 08:25:00,21.2,18.2,30.11,NW,311,16.0,29.0,88,0.00,,---,0.00,VWS V14.01,2013-11-12 13:25:00,
2013-11-12 08:26:00,21.2,18.2,30.11,NW,311,16.0,29.0,88,0.00,,---,0.00,VWS V14.01,2013-11-12 13:26:00,
2013-11-12 08:30:00,21.3,18.3,30.11,NW,326,12.0,28.0,88,0.00,,---,0.00,VWS V14.01,2013-11-12 13:30:00,
2013-11-12 08:31:00,21.3,18.3,30.11,NW,326,12.0,28.0,88,0.00,,---,0.00,VWS V14.01,2013-11-12 13:31:00,
2013-11-12 08:35:00,21.3,18.3,30.11,NW,315,21.0,25.0,88,0.00,,---,0.00,VWS V14.01,2013-11-12 13:35:00,
2013-11-12 08:36:00,21.3,18.3,30.11,NW,315,21.0,25.0,88,0.00,,---,0.00,VWS V14.01,2013-11-12 13:36:00,
2013-11-12 08:40:00,21.2,17.9,30.11,WNW,299,16.0,23.0,87,0.00,,---,0.00,VWS V14.01,2013-11-12 13:40:00,
2013-11-12 08:41:00,21.2,17.9,30.11,WNW,299,16.0,23.0,87,0.00,,---,0.00,VWS V14.01,2013-11-12 13:41:00,
2013-11-12 08:45:00,21.1,17.8,30.10,WNW,293,15.0,27.0,87,0.00,,---,0.00,VWS V14.01,2013-11-12 13:45:00,
2013-11-12 08:46:00,21.1,17.8,30.10,WNW,293,15.0,27.0,87,0.00,,---,0.00,VWS V14.01,2013-11-12 13:46:00,
2013-11-12 08:50:00,21.1,17.6,30.10,NW,316,25.0,26.0,86,0.00,,---,0.00,VWS V14.01,2013-11-12 13:50:00,
2013-11-12 08:51:00,21.1,17.6,30.10,NW,316,25.0,26.0,86,0.00,,---,0.00,VWS V14.01,2013-11-12 13:51:00,
2013-11-12 08:55:00,21.1,17.6,30.10,WNW,285,18.0,28.0,86,0.00,,---,0.00,VWS V14.01,2013-11-12 13:55:00,
2013-11-12 08:56:00,21.1,17.6,30.10,WNW,285,18.0,28.0,86,0.00,,---,0.00,VWS V14.01,2013-11-12 13:56:00,
2013-11-12 09:00:00,21.1,17.3,30.11,WNW,294,22.0,30.0,85,0.00,,---,0.00,VWS V14.01,2013-11-12 14:00:00,
2013-11-12 09:01:00,21.1,17.3,30.11,WNW,294,22.0,30.0,85,0.00,,---,0.00,VWS V14.01,2013-11-12 14:01:00,
2013-11-12 09:05:00,21.1,17.3,30.11,NW,323,15.0,29.0,85,0.00,,---,0.00,VWS V14.01,2013-11-12 14:05:00,
2013-11-12 09:06:00,21.1,17.3,30.11,NW,323,15.0,29.0,85,0.00,,---,0.00,VWS V14.01,2013-11-12 14:06:00,
2013-11-12 09:10:00,21.0,17.2,30.11,WNW,288,26.0,29.0,85,0.00,,---,0.00,VWS V14.01,2013-11-12 14:10:00,
2013-11-12 09:11:00,21.0,17.2,30.11,WNW,288,26.0,29.0,85,0.00,,---,0.00,VWS V14.01,2013-11-12 14:11:00,
2013-11-12 09:15:00,20.9,17.1,30.11,WNW,291,14.0,30.0,85,0.00,,---,0.00,VWS V14.01,2013-11-12 14:15:00,
2013-11-12 09:16:00,20.9,17.1,30.11,WNW,291,14.0,30.0,85,0.00,,---,0.00,VWS V14.01,2013-11-12 14:16:00,
2013-11-12 09:20:00,20.9,16.8,30.12,WNW,283,15.0,32.0,84,0.00,,---,0.00,VWS V14.01,2013-11-12 14:20:00,
2013-11-12 09:21:00,20.9,16.8,30.12,WNW,283,15.0,32.0,84,0.00,,---,0.00,VWS V14.01,2013-11-12 14:21:00,
2013-11-12 09:25:00,20.9,16.8,30.12,NW,312,22.0,29.0,84,0.00,,---,0.00,VWS V14.01,2013-11-12 14:25:00,
2013-11-12 09:26:00,20.9,16.8,30.12,NW,312,22.0,29.0,84,0.00,,---,0.00,VWS V14.01,2013-11-12 14:26:00,
2013-11-12 09:30:00,20.9,16.6,30.11,WNW,293,21.0,34.0,83,0.00,,---,0.00,VWS V14.01,2013-11-12 14:30:00,
2013-11-12 09:31:00,20.9,16.6,30.11,WNW,293,21.0,34.0,83,0.00,,---,0.00,VWS V14.01,2013-11-12 14:31:00,
2013-11-12 09:35:00,20.8,16.5,30.11,WNW,283,21.0,31.0,83,0.00,,---,0.00,VWS V14.01,2013-11-12 14:35:00,
2013-11-12 09:36:00,20.8,16.5,30.11,WNW,283,21.0,31.0,83,0.00,,---,0.00,VWS V14.01,2013-11-12 14:36:00,
2013-11-12 09:40:00,20.9,16.6,30.12,West,269,18.0,31.0,83,0.00,,---,0.00,VWS V14.01,2013-11-12 14:40:00,
2013-11-12 09:41:00,20.9,16.6,30.12,West,269,18.0,31.0,83,0.00,,---,0.00,VWS V14.01,2013-11-12 14:41:00,
2013-11-12 09:45:00,20.9,16.8,30.12,WNW,290,14.0,25.0,84,0.00,,---,0.00,VWS V14.01,2013-11-12 14:45:00,
2013-11-12 09:46:00,20.9,16.8,30.12,WNW,290,14.0,25.0,84,0.00,,---,0.00,VWS V14.01,2013-11-12 14:46:00,
2013-11-12 09:50:00,21.0,16.9,30.12,WNW,287,17.0,23.0,84,0.00,,---,0.00,VWS V14.01,2013-11-12 14:50:00,
2013-11-12 09:51:00,21.0,16.9,30.12,WNW,287,17.0,23.0,84,0.00,,---,0.00,VWS V14.01,2013-11-12 14:51:00,
2013-11-12 09:55:00,21.1,17.3,30.13,NNW,330,18.0,26.0,85,0.00,,---,0.00,VWS V14.01,2013-11-12 14:55:00,
2013-11-12 09:56:00,21.1,17.3,30.13,NNW,330,18.0,26.0,85,0.00,,---,0.00,VWS V14.01,2013-11-12 14:56:00,
2013-11-12 10:00:00,21.0,17.2,30.13,NW,304,21.0,23.0,85,0.00,,---,0.00,VWS V14.01,2013-11-12 15:00:00,
2013-11-12 10:01:00,21.0,17.2,30.13,NW,304,21.0,23.0,85,0.00,,---,0.00,VWS V14.01,2013-11-12 15:01:00,
2013-11-12 10:05:00,20.8,16.7,30.13,WNW,285,19.0,30.0,84,0.00,,---,0.00,VWS V14.01,2013-11-12 15:05:00,
2013-11-12 10:10:00,20.8,16.7,30.13,WNW,302,17.0,22.0,84,0.00,,---,0.00,VWS V14.01,2013-11-12 15:10:00,
2013-11-12 10:11:00,20.8,16.7,30.13,WNW,302,17.0,22.0,84,0.00,,---,0.00,VWS V14.01,2013-11-12 15:11:00,
2013-11-12 10:15:00,20.9,16.8,30.14,WNW,289,21.0,21.0,84,0.00,,---,0.00,VWS V14.01,2013-11-12 15:15:00,
2013-11-12 10:16:00,20.9,16.8,30.14,WNW,289,21.0,21.0,84,0.00,,---,0.00,VWS V14.01,2013-11-12 15:16:00,
2013-11-12 10:20:00,21.0,16.7,30.14,NW,315,15.0,26.0,83,0.00,,---,0.00,VWS V14.01,2013-11-12 15:20:00,
2013-11-12 10:21:00,21.0,16.7,30.14,NW,315,15.0,26.0,83,0.00,,---,0.00,VWS V14.01,2013-11-12 15:21:00,
2013-11-12 10:25:00,21.0,16.9,30.14,West,281,17.0,23.0,84,0.00,,---,0.00,VWS V14.01,2013-11-12 15:25:00,
2013-11-12 10:26:00,21.0,16.9,30.14,West,281,17.0,23.0,84,0.00,,---,0.00,VWS V14.01,2013-11-12 15:26:00,
2013-11-12 10:30:00,21.0,16.7,30.14,NW,308,17.0,23.0,83,0.00,,---,0.00,VWS V14.01,2013-11-12 15:30:00,
2013-11-12 10:31:00,21.0,16.7,30.14,NW,308,17.0,23.0,83,0.00,,---,0.00,VWS V14.01,2013-11-12 15:31:00,
2013-11-12 10:35:00,20.9,16.6,30.14,NW,305,18.0,24.0,83,0.00,,---,0.00,VWS V14.01,2013-11-12 15:35:00,
2013-11-12 10:36:00,20.9,16.6,30.14,NW,305,18.0,24.0,83,0.00,,---,0.00,VWS V14.01,2013-11-12 15:36:00,
2013-11-12 10:40:00,21.0,16.4,30.14,NW,324,19.0,31.0,82,0.00,,---,0.00,VWS V14.01,2013-11-12 15:40:00,
2013-11-12 10:41:00,21.0,16.4,30.14,NW,324,19.0,31.0,82,0.00,,---,0.00,VWS V14.01,2013-11-12 15:41:00,
2013-11-12 10:45:00,21.4,16.8,30.15,NW,326,10.0,24.0,82,0.00,,---,0.00,VWS V14.01,2013-11-12 15:45:00,
2013-11-12 10:46:00,21.4,16.8,30.15,NW,326,10.0,24.0,82,0.00,,---,0.00,VWS V14.01,2013-11-12 15:46:00,
2013-11-12 10:50:00,21.6,17.0,30.15,WNW,298,15.0,22.0,82,0.00,,---,0.00,VWS V14.01,2013-11-12 15:50:00,
2013-11-12 10:51:00,21.6,17.0,30.15,WNW,298,15.0,22.0,82,0.00,,---,0.00,VWS V14.01,2013-11-12 15:51:00,
2013-11-12 10:55:00,22.0,17.4,30.15,NW,312,13.0,20.0,82,0.00,,---,0.00,VWS V14.01,2013-11-12 15:55:00,
2013-11-12 10:56:00,22.0,17.4,30.15,NW,312,13.0,20.0,82,0.00,,---,0.00,VWS V14.01,2013-11-12 15:56:00,
2013-11-12 11:00:00,21.9,16.7,30.14,WNW,300,16.0,27.0,80,0.00,,---,0.00,VWS V14.01,2013-11-12 16:00:00,
2013-11-12 11:01:00,21.9,16.7,30.14,WNW,300,16.0,27.0,80,0.00,,---,0.00,VWS V14.01,2013-11-12 16:01:00,
2013-11-12 11:05:00,21.8,16.6,30.14,NW,308,14.0,30.0,80,0.00,,---,0.00,VWS V14.01,2013-11-12 16:05:00,
2013-11-12 11:06:00,21.8,16.6,30.14,NW,308,14.0,30.0,80,0.00,,---,0.00,VWS V14.01,2013-11-12 16:06:00,
2013-11-12 11:10:00,21.8,16.6,30.14,NW,310,9.0,24.0,80,0.00,,---,0.00,VWS V14.01,2013-11-12 16:10:00,
2013-11-12 11:11:00,21.8,16.6,30.14,NW,310,9.0,24.0,80,0.00,,---,0.00,VWS V14.01,2013-11-12 16:11:00,
2013-11-12 11:15:00,21.9,17.0,30.14,WNW,294,9.0,24.0,81,0.00,,---,0.00,VWS V14.01,2013-11-12 16:15:00,
2013-11-12 11:16:00,21.9,17.0,30.14,WNW,294,9.0,24.0,81,0.00,,---,0.00,VWS V14.01,2013-11-12 16:16:00,
2013-11-12 11:20:00,21.8,16.6,30.14,NW,309,15.0,29.0,80,0.00,,---,0.00,VWS V14.01,2013-11-12 16:20:00,
2013-11-12 11:21:00,21.8,16.6,30.14,NW,309,15.0,29.0,80,0.00,,---,0.00,VWS V14.01,2013-11-12 16:21:00,
2013-11-12 11:25:00,22.1,17.5,30.14,NW,305,17.0,23.0,82,0.00,,---,0.00,VWS V14.01,2013-11-12 16:25:00,
2013-11-12 11:26:00,22.1,17.5,30.14,NW,305,17.0,23.0,82,0.00,,---,0.00,VWS V14.01,2013-11-12 16:26:00,
2013-11-12 11:30:00,22.1,17.2,30.14,NW,305,13.0,23.0,81,0.00,,---,0.00,VWS V14.01,2013-11-12 16:30:00,
2013-11-12 11:31:00,22.1,17.2,30.14,NW,305,13.0,23.0,81,0.00,,---,0.00,VWS V14.01,2013-11-12 16:31:00,
2013-11-12 11:35:00,22.1,17.2,30.15,NW,319,12.0,21.0,81,0.00,,---,0.00,VWS V14.01,2013-11-12 16:35:00,
2013-11-12 11:36:00,22.1,17.2,30.15,NW,319,12.0,21.0,81,0.00,,---,0.00,VWS V14.01,2013-11-12 16:36:00,
2013-11-12 11:40:00,22.1,17.5,30.15,NW,307,21.0,25.0,82,0.00,,---,0.00,VWS V14.01,2013-11-12 16:40:00,
2013-11-12 11:41:00,22.1,17.5,30.15,NW,307,21.0,25.0,82,0.00,,---,0.00,VWS V14.01,2013-11-12 16:41:00,
2013-11-12 11:45:00,21.9,16.7,30.15,NW,324,11.0,31.0,80,0.00,,---,0.00,VWS V14.01,2013-11-12 16:45:00,
2013-11-12 11:46:00,21.9,16.7,30.15,NW,324,11.0,31.0,80,0.00,,---,0.00,VWS V14.01,2013-11-12 16:46:00,
2013-11-12 11:50:00,21.8,16.9,30.15,NNW,329,13.0,25.0,81,0.00,,---,0.00,VWS V14.01,2013-11-12 16:50:00,
2013-11-12 11:51:00,21.8,16.9,30.15,NNW,329,13.0,25.0,81,0.00,,---,0.00,VWS V14.01,2013-11-12 16:51:00,
2013-11-12 11:55:00,22.0,16.8,30.15,WNW,294,20.0,28.0,80,0.00,,---,0.00,VWS V14.01,2013-11-12 16:55:00,
2013-11-12 11:56:00,22.0,16.8,30.15,WNW,294,20.0,28.0,80,0.00,,---,0.00,VWS V14.01,2013-11-12 16:56:00,
2013-11-12 12:00:00,22.1,16.9,30.15,WNW,301,21.0,25.0,80,0.00,,---,0.00,VWS V14.01,2013-11-12 17:00:00,
2013-11-12 12:01:00,22.1,16.9,30.15,WNW,301,21.0,25.0,80,0.00,,---,0.00,VWS V14.01,2013-11-12 17:01:00,
2013-11-12 12:05:00,22.0,16.8,30.15,WNW,297,11.0,22.0,80,0.00,,---,0.00,VWS V14.01,2013-11-12 17:05:00,
2013-11-12 12:06:00,22.0,16.8,30.15,WNW,297,11.0,22.0,80,0.00,,---,0.00,VWS V14.01,2013-11-12 17:06:00,
2013-11-12 12:10:00,22.5,17.3,30.15,WNW,292,18.0,26.0,80,0.00,,---,0.00,VWS V14.01,2013-11-12 17:10:00,
2013-11-12 12:11:00,22.5,17.3,30.15,WNW,292,18.0,26.0,80,0.00,,---,0.00,VWS V14.01,2013-11-12 17:11:00,
2013-11-12 12:15:00,22.3,17.1,30.15,NW,315,13.0,23.0,80,0.00,,---,0.00,VWS V14.01,2013-11-12 17:15:00,
2013-11-12 12:16:00,22.3,17.1,30.15,NW,315,13.0,23.0,80,0.00,,---,0.00,VWS V14.01,2013-11-12 17:16:00,
2013-11-12 12:20:00,22.5,17.3,30.16,WNW,302,19.0,26.0,80,0.00,,---,0.00,VWS V14.01,2013-11-12 17:20:00,
2013-11-12 12:21:00,22.5,17.3,30.16,WNW,302,19.0,26.0,80,0.00,,---,0.00,VWS V14.01,2013-11-12 17:21:00,
2013-11-12 12:25:00,22.7,17.5,30.16,WNW,295,16.0,25.0,80,0.00,,---,0.00,VWS V14.01,2013-11-12 17:25:00,
2013-11-12 12:26:00,22.7,17.5,30.16,WNW,295,16.0,25.0,80,0.00,,---,0.00,VWS V14.01,2013-11-12 17:26:00,
2013-11-12 12:30:00,22.8,17.3,30.16,WNW,290,21.0,27.0,79,0.00,,---,0.00,VWS V14.01,2013-11-12 17:30:00,
2013-11-12 12:31:00,22.8,17.3,30.16,WNW,290,21.0,27.0,79,0.00,,---,0.00,VWS V14.01,2013-11-12 17:31:00,
2013-11-12 12:35:00,23.0,17.8,30.16,NW,319,12.0,27.0,80,0.00,,---,0.00,VWS V14.01,2013-11-12 17:35:00,
2013-11-12 12:36:00,23.0,17.8,30.16,NW,319,12.0,27.0,80,0.00,,---,0.00,VWS V14.01,2013-11-12 17:36:00,
2013-11-12 12:40:00,22.9,17.7,30.16,WNW,302,14.0,32.0,80,0.00,,---,0.00,VWS V14.01,2013-11-12 17:40:00,
2013-11-12 12:41:00,22.9,17.7,30.16,WNW,302,14.0,32.0,80,0.00,,---,0.00,VWS V14.01,2013-11-12 17:41:00,
2013-11-12 12:45:00,23.0,17.5,30.16,NW,308,17.0,24.0,79,0.00,,---,0.00,VWS V14.01,2013-11-12 17:45:00,
2013-11-12 12:46:00,23.0,17.5,30.16,NW,308,17.0,24.0,79,0.00,,---,0.00,VWS V14.01,2013-11-12 17:46:00,
2013-11-12 12:50:00,22.8,17.3,30.16,WNW,287,15.0,25.0,79,0.00,,---,0.00,VWS V14.01,2013-11-12 17:50:00,
2013-11-12 12:51:00,22.8,17.3,30.16,WNW,287,15.0,25.0,79,0.00,,---,0.00,VWS V14.01,2013-11-12 17:51:00,
2013-11-12 12:55:00,22.6,17.4,30.16,WNW,302,14.0,24.0,80,0.00,,---,0.00,VWS V14.01,2013-11-12 17:55:00,
2013-11-12 12:56:00,22.6,17.4,30.16,WNW,302,14.0,24.0,80,0.00,,---,0.00,VWS V14.01,2013-11-12 17:56:00,
2013-11-12 13:00:00,22.6,17.4,30.16,NW,309,15.0,24.0,80,0.00,,---,0.00,VWS V14.01,2013-11-12 18:00:00,
2013-11-12 13:01:00,22.6,17.4,30.16,NW,309,15.0,24.0,80,0.00,,---,0.00,VWS V14.01,2013-11-12 18:01:00,
2013-11-12 13:05:00,22.7,17.8,30.16,NW,319,15.0,24.0,81,0.00,,---,0.00,VWS V14.01,2013-11-12 18:05:00,
2013-11-12 13:10:00,22.7,17.8,30.16,NW,314,17.0,24.0,81,0.00,,---,0.00,VWS V14.01,2013-11-12 18:10:00,
2013-11-12 13:11:00,22.7,17.8,30.16,NW,314,17.0,24.0,81,0.00,,---,0.00,VWS V14.01,2013-11-12 18:11:00,
2013-11-12 13:15:00,22.8,17.9,30.16,WNW,302,20.0,23.0,81,0.00,,---,0.00,VWS V14.01,2013-11-12 18:15:00,
2013-11-12 13:16:00,22.8,17.9,30.16,WNW,302,20.0,23.0,81,0.00,,---,0.00,VWS V14.01,2013-11-12 18:16:00,
2013-11-12 13:20:00,22.7,17.8,30.16,WNW,298,12.0,24.0,81,0.00,,---,0.00,VWS V14.01,2013-11-12 18:20:00,
2013-11-12 13:21:00,22.7,17.8,30.16,WNW,298,12.0,24.0,81,0.00,,---,0.00,VWS V14.01,2013-11-12 18:21:00,
2013-11-12 13:25:00,22.7,17.8,30.16,NW,305,16.0,27.0,81,0.00,,---,0.00,VWS V14.01,2013-11-12 18:25:00,
2013-11-12 13:26:00,22.7,17.8,30.16,NW,305,16.0,27.0,81,0.00,,---,0.00,VWS V14.01,2013-11-12 18:26:00,
2013-11-12 13:30:00,22.7,18.0,30.16,NW,321,15.0,27.0,82,0.00,,---,0.00,VWS V14.01,2013-11-12 18:30:00,
2013-11-12 13:31:00,22.7,18.0,30.16,NW,321,15.0,27.0,82,0.00,,---,0.00,VWS V14.01,2013-11-12 18:31:00,
2013-11-12 13:35:00,22.8,18.1,30.17,WNW,290,19.0,25.0,82,0.00,,---,0.00,VWS V14.01,2013-11-12 18:35:00,
2013-11-12 13:36:00,22.8,18.1,30.17,WNW,290,19.0,25.0,82,0.00,,---,0.00,VWS V14.01,2013-11-12 18:36:00,
2013-11-12 13:40:00,22.9,18.0,30.17,WNW,291,16.0,25.0,81,0.00,,---,0.00,VWS V14.01,2013-11-12 18:40:00,
2013-11-12 13:41:00,22.9,18.0,30.17,WNW,291,16.0,25.0,81,0.00,,---,0.00,VWS V14.01,2013-11-12 18:41:00,
2013-11-12 13:45:00,23.0,18.3,30.17,WNW,300,21.0,23.0,82,0.00,,---,0.00,VWS V14.01,2013-11-12 18:45:00,
2013-11-12 13:46:00,23.0,18.3,30.17,WNW,300,21.0,23.0,82,0.00,,---,0.00,VWS V14.01,2013-11-12 18:46:00,
2013-11-12 13:50:00,23.0,18.0,30.17,WNW,294,11.0,25.0,81,0.00,,---,0.00,VWS V14.01,2013-11-12 18:50:00,
2013-11-12 13:51:00,23.0,18.0,30.17,WNW,294,11.0,25.0,81,0.00,,---,0.00,VWS V14.01,2013-11-12 18:51:00,
2013-11-12 13:55:00,22.9,17.7,30.17,WNW,291,20.0,23.0,80,0.00,,---,0.00,VWS V14.01,2013-11-12 18:55:00,
2013-11-12 13:56:00,22.9,17.7,30.17,WNW,291,20.0,23.0,80,0.00,,---,0.00,VWS V14.01,2013-11-12 18:56:00,
2013-11-12 14:00:00,22.9,17.7,30.18,WNW,300,11.0,24.0,80,0.00,,---,0.00,VWS V14.01,2013-11-12 19:00:00,
2013-11-12 14:01:00,22.9,17.7,30.18,WNW,300,11.0,24.0,80,0.00,,---,0.00,VWS V14.01,2013-11-12 19:01:00,
2013-11-12 14:05:00,22.8,17.6,30.18,NW,309,12.0,24.0,80,0.00,,---,0.00,VWS V14.01,2013-11-12 19:05:00,
2013-11-12 14:10:00,22.8,17.3,30.17,NW,308,9.0,23.0,79,0.00,,---,0.00,VWS V14.01,2013-11-12 19:10:00,
2013-11-12 14:11:00,22.8,17.3,30.17,NW,308,9.0,23.0,79,0.00,,---,0.00,VWS V14.01,2013-11-12 19:11:00,
2013-11-12 14:15:00,22.9,17.4,30.18,NW,309,19.0,21.0,79,0.00,,---,0.00,VWS V14.01,2013-11-12 19:15:00,
2013-11-12 14:16:00,22.9,17.4,30.18,NW,309,19.0,21.0,79,0.00,,---,0.00,VWS V14.01,2013-11-12 19:16:00,
2013-11-12 14:20:00,23.0,17.8,30.18,WNW,290,13.0,21.0,80,0.00,,---,0.00,VWS V14.01,2013-11-12 19:20:00,
2013-11-12 14:21:00,23.0,17.8,30.18,WNW,290,13.0,21.0,80,0.00,,---,0.00,VWS V14.01,2013-11-12 19:21:00,
2013-11-12 14:25:00,22.9,17.4,30.18,NW,312,18.0,22.0,79,0.00,,---,0.00,VWS V14.01,2013-11-12 19:25:00,
2013-11-12 14:26:00,22.9,17.4,30.18,NW,312,18.0,22.0,79,0.00,,---,0.00,VWS V14.01,2013-11-12 19:26:00,
2013-11-12 14:30:00,22.8,17.3,30.18,NW,314,17.0,29.0,79,0.00,,---,0.00,VWS V14.01,2013-11-12 19:30:00,
2013-11-12 14:31:00,22.8,17.3,30.18,NW,314,17.0,29.0,79,0.00,,---,0.00,VWS V14.01,2013-11-12 19:31:00,
2013-11-12 14:35:00,23.0,17.8,30.18,WNW,288,19.0,28.0,80,0.00,,---,0.00,VWS V14.01,2013-11-12 19:35:00,
2013-11-12 14:36:00,23.0,17.8,30.18,WNW,288,19.0,28.0,80,0.00,,---,0.00,VWS V14.01,2013-11-12 19:36:00,
2013-11-12 14:40:00,23.2,17.7,30.18,WNW,288,12.0,21.0,79,0.00,,---,0.00,VWS V14.01,2013-11-12 19:40:00,
2013-11-12 14:41:00,23.2,17.7,30.18,WNW,288,12.0,21.0,79,0.00,,---,0.00,VWS V14.01,2013-11-12 19:41:00,
2013-11-12 14:45:00,23.0,17.2,30.18,WNW,288,19.0,31.0,78,0.00,,---,0.00,VWS V14.01,2013-11-12 19:45:00,
2013-11-12 14:46:00,23.0,17.2,30.18,WNW,288,19.0,31.0,78,0.00,,---,0.00,VWS V14.01,2013-11-12 19:46:00,
2013-11-12 14:50:00,22.9,17.1,30.18,WNW,297,16.0,30.0,78,0.00,,---,0.00,VWS V14.01,2013-11-12 19:50:00,
2013-11-12 14:51:00,22.9,17.1,30.18,WNW,297,16.0,30.0,78,0.00,,---,0.00,VWS V14.01,2013-11-12 19:51:00,
2013-11-12 14:55:00,22.9,17.1,30.18,NW,321,21.0,28.0,78,0.00,,---,0.00,VWS V14.01,2013-11-12 19:55:00,
2013-11-12 14:56:00,22.9,17.1,30.18,NW,321,21.0,28.0,78,0.00,,---,0.00,VWS V14.01,2013-11-12 19:56:00,
2013-11-12 15:00:00,22.9,16.8,30.18,NW,323,16.0,25.0,77,0.00,,---,0.00,VWS V14.01,2013-11-12 20:00:00,
2013-11-12 15:01:00,22.9,16.8,30.18,NW,323,16.0,25.0,77,0.00,,---,0.00,VWS V14.01,2013-11-12 20:01:00,
2013-11-12 15:05:00,22.9,16.8,30.19,WNW,297,21.0,28.0,77,0.00,,---,0.00,VWS V14.01,2013-11-12 20:05:00,
2013-11-12 15:10:00,22.9,16.8,30.19,WNW,285,13.0,31.0,77,0.00,,---,0.00,VWS V14.01,2013-11-12 20:10:00,
2013-11-12 15:11:00,22.9,16.8,30.19,WNW,285,13.0,31.0,77,0.00,,---,0.00,VWS V14.01,2013-11-12 20:11:00,
2013-11-12 15:15:00,22.9,16.8,30.19,WNW,291,9.0,26.0,77,0.00,,---,0.00,VWS V14.01,2013-11-12 20:15:00,
2013-11-12 15:16:00,22.9,16.8,30.19,WNW,291,9.0,26.0,77,0.00,,---,0.00,VWS V14.01,2013-11-12 20:16:00,
2013-11-12 15:20:00,22.9,17.1,30.19,WNW,300,15.0,23.0,78,0.00,,---,0.00,VWS V14.01,2013-11-12 20:20:00,
2013-11-12 15:21:00,22.9,17.1,30.19,WNW,300,15.0,23.0,78,0.00,,---,0.00,VWS V14.01,2013-11-12 20:21:00,
2013-11-12 15:25:00,23.0,17.2,30.19,WNW,294,20.0,31.0,78,0.00,,---,0.00,VWS V14.01,2013-11-12 20:25:00,
2013-11-12 15:26:00,23.0,17.2,30.19,WNW,294,20.0,31.0,78,0.00,,---,0.00,VWS V14.01,2013-11-12 20:26:00,
2013-11-12 15:30:00,22.9,17.1,30.19,WNW,285,18.0,23.0,78,0.00,,---,0.00,VWS V14.01,2013-11-12 20:30:00,
2013-11-12 15:31:00,22.9,17.1,30.19,WNW,285,18.0,23.0,78,0.00,,---,0.00,VWS V14.01,2013-11-12 20:31:00,
2013-11-12 15:35:00,23.0,17.2,30.20,WNW,298,7.0,25.0,78,0.00,,---,0.00,VWS V14.01,2013-11-12 20:35:00,
2013-11-12 15:36:00,23.0,17.2,30.20,WNW,298,7.0,25.0,78,0.00,,---,0.00,VWS V14.01,2013-11-12 20:36:00,
2013-11-12 15:40:00,23.0,17.2,30.20,WNW,293,12.0,26.0,78,0.00,,---,0.00,VWS V14.01,2013-11-12 20:40:00,
2013-11-12 15:41:00,23.0,17.2,30.20,WNW,293,12.0,26.0,78,0.00,,---,0.00,VWS V14.01,2013-11-12 20:41:00,
2013-11-12 15:45:00,23.2,17.7,30.21,WNW,293,12.0,19.0,79,0.00,,---,0.00,VWS V14.01,2013-11-12 20:45:00,
2013-11-12 15:46:00,23.2,17.7,30.21,WNW,293,12.0,19.0,79,0.00,,---,0.00,VWS V14.01,2013-11-12 20:46:00,
2013-11-12 15:50:00,23.2,17.4,30.21,NW,305,9.0,23.0,78,0.00,,---,0.00,VWS V14.01,2013-11-12 20:50:00,
2013-11-12 15:51:00,23.2,17.4,30.21,NW,305,9.0,23.0,78,0.00,,---,0.00,VWS V14.01,2013-11-12 20:51:00,
2013-11-12 15:55:00,23.3,17.5,30.21,NW,318,11.0,21.0,78,0.00,,---,0.00,VWS V14.01,2013-11-12 20:55:00,
2013-11-12 15:56:00,23.3,17.5,30.21,NW,318,11.0,21.0,78,0.00,,---,0.00,VWS V14.01,2013-11-12 20:56:00,
2013-11-12 16:00:00,23.2,17.4,30.21,NW,305,16.0,21.0,78,0.00,,---,0.00,VWS V14.01,2013-11-12 21:00:00,
2013-11-12 16:01:00,23.2,17.4,30.21,NW,305,16.0,21.0,78,0.00,,---,0.00,VWS V14.01,2013-11-12 21:01:00,
2013-11-12 16:05:00,23.1,17.3,30.21,NNW,329,18.0,20.0,78,0.00,,---,0.00,VWS V14.01,2013-11-12 21:05:00,
2013-11-12 16:10:00,23.0,17.2,30.22,NW,305,20.0,25.0,78,0.00,,---,0.00,VWS V14.01,2013-11-12 21:10:00,
2013-11-12 16:11:00,23.0,17.2,30.22,NW,305,20.0,25.0,78,0.00,,---,0.00,VWS V14.01,2013-11-12 21:11:00,
2013-11-12 16:15:00,22.8,17.3,30.22,NW,308,11.0,20.0,79,0.00,,---,0.00,VWS V14.01,2013-11-12 21:15:00,
2013-11-12 16:16:00,22.8,17.3,30.22,NW,308,11.0,20.0,79,0.00,,---,0.00,VWS V14.01,2013-11-12 21:16:00,
2013-11-12 16:20:00,22.8,17.6,30.22,West,280,13.0,22.0,80,0.00,,---,0.00,VWS V14.01,2013-11-12 21:20:00,
2013-11-12 16:21:00,22.8,17.6,30.22,West,280,13.0,22.0,80,0.00,,---,0.00,VWS V14.01,2013-11-12 21:21:00,
2013-11-12 16:25:00,22.7,17.5,30.22,WNW,301,13.0,16.0,80,0.00,,---,0.00,VWS V14.01,2013-11-12 21:25:00,
2013-11-12 16:26:00,22.7,17.5,30.22,WNW,301,13.0,16.0,80,0.00,,---,0.00,VWS V14.01,2013-11-12 21:26:00,
2013-11-12 16:30:00,22.7,17.8,30.23,West,269,8.0,15.0,81,0.00,,---,0.00,VWS V14.01,2013-11-12 21:30:00,
2013-11-12 16:31:00,22.7,17.8,30.23,West,269,8.0,15.0,81,0.00,,---,0.00,VWS V14.01,2013-11-12 21:31:00,
2013-11-12 16:35:00,22.8,17.9,30.23,NNW,332,11.0,15.0,81,0.00,,---,0.00,VWS V14.01,2013-11-12 21:35:00,
2013-11-12 16:36:00,22.8,17.9,30.23,NNW,332,11.0,15.0,81,0.00,,---,0.00,VWS V14.01,2013-11-12 21:36:00,
2013-11-12 16:40:00,22.7,18.0,30.23,NNW,333,14.0,20.0,82,0.00,,---,0.00,VWS V14.01,2013-11-12 21:40:00,
2013-11-12 16:41:00,22.7,18.0,30.23,NNW,333,14.0,20.0,82,0.00,,---,0.00,VWS V14.01,2013-11-12 21:41:00,
2013-11-12 16:45:00,22.7,18.3,30.23,WNW,287,8.0,14.0,83,0.00,,---,0.00,VWS V14.01,2013-11-12 21:45:00,
2013-11-12 16:46:00,22.7,18.3,30.23,WNW,287,8.0,14.0,83,0.00,,---,0.00,VWS V14.01,2013-11-12 21:46:00,
2013-11-12 16:50:00,22.6,18.2,30.23,NW,318,11.0,15.0,83,0.00,,---,0.00,VWS V14.01,2013-11-12 21:50:00,
2013-11-12 16:51:00,22.6,18.2,30.23,NW,318,11.0,15.0,83,0.00,,---,0.00,VWS V14.01,2013-11-12 21:51:00,
2013-11-12 16:55:00,22.5,18.1,30.23,NW,319,11.0,13.0,83,0.00,,---,0.00,VWS V14.01,2013-11-12 21:55:00,
2013-11-12 16:56:00,22.5,18.1,30.23,NW,319,11.0,13.0,83,0.00,,---,0.00,VWS V14.01,2013-11-12 21:56:00,
2013-11-12 17:00:00,22.5,18.1,30.24,NW,307,6.0,13.0,83,0.00,,---,0.00,VWS V14.01,2013-11-12 22:00:00,
2013-11-12 17:01:00,22.5,18.1,30.24,NW,307,6.0,13.0,83,0.00,,---,0.00,VWS V14.01,2013-11-12 22:01:00,
2013-11-12 17:05:00,22.5,18.1,30.24,WNW,293,14.0,17.0,83,0.00,,---,0.00,VWS V14.01,2013-11-12 22:05:00,
2013-11-12 17:10:00,22.6,18.2,30.24,NW,308,14.0,22.0,83,0.00,,---,0.00,VWS V14.01,2013-11-12 22:10:00,
2013-11-12 17:11:00,22.6,18.2,30.24,NW,308,14.0,22.0,83,0.00,,---,0.00,VWS V14.01,2013-11-12 22:11:00,
2013-11-12 17:15:00,22.7,18.0,30.23,WNW,302,9.0,19.0,82,0.00,,---,0.00,VWS V14.01,2013-11-12 22:15:00,
2013-11-12 17:16:00,22.7,18.0,30.23,WNW,302,9.0,19.0,82,0.00,,---,0.00,VWS V14.01,2013-11-12 22:16:00,
2013-11-12 17:20:00,22.7,18.0,30.23,WNW,294,11.0,17.0,82,0.00,,---,0.00,VWS V14.01,2013-11-12 22:20:00,
2013-11-12 17:21:00,22.7,18.0,30.23,WNW,294,11.0,17.0,82,0.00,,---,0.00,VWS V14.01,2013-11-12 22:21:00,
2013-11-12 17:25:00,22.6,17.9,30.23,WNW,297,8.0,18.0,82,0.00,,---,0.00,VWS V14.01,2013-11-12 22:25:00,
2013-11-12 17:26:00,22.6,17.9,30.23,WNW,297,8.0,18.0,82,0.00,,---,0.00,VWS V14.01,2013-11-12 22:26:00,
2013-11-12 17:30:00,22.5,17.9,30.24,NW,308,13.0,17.0,82,0.00,,---,0.00,VWS V14.01,2013-11-12 22:30:00,
2013-11-12 17:31:00,22.5,17.9,30.24,NW,308,13.0,17.0,82,0.00,,---,0.00,VWS V14.01,2013-11-12 22:31:00,
2013-11-12 17:35:00,22.5,18.1,30.24,NW,314,9.0,16.0,83,0.00,,---,0.00,VWS V14.01,2013-11-12 22:35:00,
2013-11-12 17:36:00,22.5,18.1,30.24,NW,314,9.0,16.0,83,0.00,,---,0.00,VWS V14.01,2013-11-12 22:36:00,
2013-11-12 17:40:00,22.5,18.1,30.24,WNW,298,8.0,17.0,83,0.00,,---,0.00,VWS V14.01,2013-11-12 22:40:00,
2013-11-12 17:41:00,22.5,18.1,30.24,WNW,298,8.0,17.0,83,0.00,,---,0.00,VWS V14.01,2013-11-12 22:41:00,
2013-11-12 17:45:00,22.4,18.0,30.24,NW,314,5.0,17.0,83,0.00,,---,0.00,VWS V14.01,2013-11-12 22:45:00,
2013-11-12 17:46:00,22.4,18.0,30.24,NW,314,5.0,17.0,83,0.00,,---,0.00,VWS V14.01,2013-11-12 22:46:00,
2013-11-12 17:50:00,22.5,18.1,30.24,NW,311,10.0,14.0,83,0.00,,---,0.00,VWS V14.01,2013-11-12 22:50:00,
2013-11-12 17:51:00,22.5,18.1,30.24,NW,311,10.0,14.0,83,0.00,,---,0.00,VWS V14.01,2013-11-12 22:51:00,
2013-11-12 17:55:00,22.8,18.4,30.24,NNW,332,9.0,17.0,83,0.00,,---,0.00,VWS V14.01,2013-11-12 22:55:00,
2013-11-12 17:56:00,22.8,18.4,30.24,NNW,332,9.0,17.0,83,0.00,,---,0.00,VWS V14.01,2013-11-12 22:56:00,
2013-11-12 18:00:00,22.8,18.4,30.24,WNW,290,8.0,14.0,83,0.00,,---,0.00,VWS V14.01,2013-11-12 23:00:00,
2013-11-12 18:01:00,22.8,18.4,30.24,WNW,290,8.0,14.0,83,0.00,,---,0.00,VWS V14.01,2013-11-12 23:01:00,
2013-11-12 18:05:00,22.9,18.5,30.25,WNW,302,8.0,14.0,83,0.00,,---,0.00,VWS V14.01,2013-11-12 23:05:00,
2013-11-12 18:10:00,22.8,18.7,30.25,WNW,295,8.0,18.0,84,0.00,,---,0.00,VWS V14.01,2013-11-12 23:10:00,
2013-11-12 18:11:00,22.8,18.7,30.25,WNW,295,8.0,18.0,84,0.00,,---,0.00,VWS V14.01,2013-11-12 23:11:00,
2013-11-12 18:15:00,22.7,18.6,30.25,WNW,291,7.0,15.0,84,0.00,,---,0.00,VWS V14.01,2013-11-12 23:15:00,
2013-11-12 18:16:00,22.7,18.6,30.25,WNW,291,7.0,15.0,84,0.00,,---,0.00,VWS V14.01,2013-11-12 23:16:00,
2013-11-12 18:20:00,22.5,18.1,30.25,WNW,290,8.0,15.0,83,0.00,,---,0.00,VWS V14.01,2013-11-12 23:20:00,
2013-11-12 18:21:00,22.5,18.1,30.25,WNW,290,8.0,15.0,83,0.00,,---,0.00,VWS V14.01,2013-11-12 23:21:00,
2013-11-12 18:25:00,22.3,17.9,30.25,WNW,295,13.0,19.0,83,0.00,,---,0.00,VWS V14.01,2013-11-12 23:25:00,
2013-11-12 18:26:00,22.3,17.9,30.25,WNW,295,13.0,19.0,83,0.00,,---,0.00,VWS V14.01,2013-11-12 23:26:00,
2013-11-12 18:30:00,22.2,17.8,30.24,NW,322,10.0,16.0,83,0.00,,---,0.00,VWS V14.01,2013-11-12 23:30:00,
2013-11-12 18:31:00,22.2,17.8,30.24,NW,322,10.0,16.0,83,0.00,,---,0.00,VWS V14.01,2013-11-12 23:31:00,
2013-11-12 18:35:00,22.1,17.7,30.24,NW,304,6.0,21.0,83,0.00,,---,0.00,VWS V14.01,2013-11-12 23:35:00,
2013-11-12 18:36:00,22.1,17.7,30.24,NW,304,6.0,21.0,83,0.00,,---,0.00,VWS V14.01,2013-11-12 23:36:00,
2013-11-12 18:40:00,21.9,17.5,30.24,WNW,283,9.0,15.0,83,0.00,,---,0.00,VWS V14.01,2013-11-12 23:40:00,
2013-11-12 18:41:00,21.9,17.5,30.24,WNW,283,9.0,15.0,83,0.00,,---,0.00,VWS V14.01,2013-11-12 23:41:00,
2013-11-12 18:45:00,21.9,17.5,30.24,NW,315,15.0,16.0,83,0.00,,---,0.00,VWS V14.01,2013-11-12 23:45:00,
2013-11-12 18:46:00,21.9,17.5,30.24,NW,315,15.0,16.0,83,0.00,,---,0.00,VWS V14.01,2013-11-12 23:46:00,
2013-11-12 18:50:00,21.9,17.8,30.24,WNW,300,8.0,18.0,84,0.00,,---,0.00,VWS V14.01,2013-11-12 23:50:00,
2013-11-12 18:51:00,21.9,17.8,30.24,WNW,300,8.0,18.0,84,0.00,,---,0.00,VWS V14.01,2013-11-12 23:51:00,
2013-11-12 18:55:00,21.8,17.7,30.24,WNW,302,8.0,21.0,84,0.00,,---,0.00,VWS V14.01,2013-11-12 23:55:00,
2013-11-12 18:56:00,21.8,17.7,30.24,WNW,302,8.0,21.0,84,0.00,,---,0.00,VWS V14.01,2013-11-12 23:56:00,
2013-11-12 19:00:00,21.8,17.7,30.24,NW,326,8.0,21.0,84,0.00,,---,0.00,VWS V14.01,2013-11-13 00:00:00,
2013-11-12 19:01:00,21.8,17.7,30.24,NW,326,8.0,21.0,84,0.00,,---,0.00,VWS V14.01,2013-11-13 00:01:00,
2013-11-12 19:05:00,21.7,17.9,30.24,WNW,302,8.0,16.0,85,0.00,,---,0.00,VWS V14.01,2013-11-13 00:05:00,
2013-11-12 19:10:00,21.6,17.8,30.25,WNW,297,8.0,16.0,85,0.00,,---,0.00,VWS V14.01,2013-11-13 00:10:00,
2013-11-12 19:11:00,21.6,17.8,30.25,WNW,297,8.0,16.0,85,0.00,,---,0.00,VWS V14.01,2013-11-13 00:11:00,
2013-11-12 19:15:00,21.7,17.9,30.25,NW,305,6.0,20.0,85,0.00,,---,0.00,VWS V14.01,2013-11-13 00:15:00,
2013-11-12 19:20:00,21.6,17.8,30.25,NW,311,13.0,19.0,85,0.00,,---,0.00,VWS V14.01,2013-11-13 00:20:00,
2013-11-12 19:21:00,21.6,17.8,30.25,NW,311,13.0,19.0,85,0.00,,---,0.00,VWS V14.01,2013-11-13 00:21:00,
2013-11-12 19:25:00,21.5,18.0,30.25,WNW,300,5.0,15.0,86,0.00,,---,0.00,VWS V14.01,2013-11-13 00:25:00,
2013-11-12 19:26:00,21.5,18.0,30.25,WNW,300,5.0,15.0,86,0.00,,---,0.00,VWS V14.01,2013-11-13 00:26:00,
2013-11-12 19:30:00,21.5,18.0,30.25,NW,310,9.0,13.0,86,0.00,,---,0.00,VWS V14.01,2013-11-13 00:30:00,
2013-11-12 19:31:00,21.5,18.0,30.25,NW,310,9.0,13.0,86,0.00,,---,0.00,VWS V14.01,2013-11-13 00:31:00,
2013-11-12 19:35:00,21.6,18.1,30.25,WNW,300,10.0,13.0,86,0.00,,---,0.00,VWS V14.01,2013-11-13 00:35:00,
2013-11-12 19:36:00,21.6,18.1,30.25,WNW,300,10.0,13.0,86,0.00,,---,0.00,VWS V14.01,2013-11-13 00:36:00,
2013-11-12 19:40:00,21.7,18.2,30.25,WNW,294,11.0,11.0,86,0.00,,---,0.00,VWS V14.01,2013-11-13 00:40:00,
2013-11-12 19:41:00,21.7,18.2,30.25,WNW,294,11.0,11.0,86,0.00,,---,0.00,VWS V14.01,2013-11-13 00:41:00,
2013-11-12 19:45:00,21.8,18.0,30.25,WNW,297,13.0,16.0,85,0.00,,---,0.00,VWS V14.01,2013-11-13 00:45:00,
2013-11-12 19:46:00,21.8,18.0,30.25,WNW,297,13.0,16.0,85,0.00,,---,0.00,VWS V14.01,2013-11-13 00:46:00,
2013-11-12 19:50:00,21.7,17.6,30.25,WNW,300,10.0,16.0,84,0.00,,---,0.00,VWS V14.01,2013-11-13 00:50:00,
2013-11-12 19:51:00,21.7,17.6,30.25,WNW,300,10.0,16.0,84,0.00,,---,0.00,VWS V14.01,2013-11-13 00:51:00,
2013-11-12 19:55:00,21.6,17.5,30.25,NW,305,9.0,19.0,84,0.00,,---,0.00,VWS V14.01,2013-11-13 00:55:00,
2013-11-12 19:56:00,21.6,17.5,30.25,NW,305,9.0,19.0,84,0.00,,---,0.00,VWS V14.01,2013-11-13 00:56:00,
2013-11-12 20:00:00,21.5,17.4,30.25,WNW,297,8.0,11.0,84,0.00,,---,0.00,VWS V14.01,2013-11-13 01:00:00,
2013-11-12 20:01:00,21.5,17.4,30.25,WNW,297,8.0,11.0,84,0.00,,---,0.00,VWS V14.01,2013-11-13 01:01:00,
2013-11-12 20:05:00,21.5,17.4,30.26,NNW,338,11.0,15.0,84,0.00,,---,0.00,VWS V14.01,2013-11-13 01:05:00,
2013-11-12 20:10:00,21.4,17.3,30.26,NNW,328,7.0,12.0,84,0.00,,---,0.00,VWS V14.01,2013-11-13 01:10:00,
2013-11-12 20:11:00,21.4,17.3,30.26,NNW,328,7.0,12.0,84,0.00,,---,0.00,VWS V14.01,2013-11-13 01:11:00,
2013-11-12 20:15:00,21.4,17.0,30.27,NW,314,9.0,17.0,83,0.00,,---,0.00,VWS V14.01,2013-11-13 01:15:00,
2013-11-12 20:16:00,21.4,17.0,30.27,NW,314,9.0,17.0,83,0.00,,---,0.00,VWS V14.01,2013-11-13 01:16:00,
2013-11-12 20:20:00,21.3,17.0,30.27,NW,305,4.0,11.0,83,0.00,,---,0.00,VWS V14.01,2013-11-13 01:20:00,
2013-11-12 20:21:00,21.3,17.0,30.27,NW,305,4.0,11.0,83,0.00,,---,0.00,VWS V14.01,2013-11-13 01:21:00,
2013-11-12 20:25:00,21.3,17.0,30.27,WNW,300,8.0,14.0,83,0.00,,---,0.00,VWS V14.01,2013-11-13 01:25:00,
2013-11-12 20:26:00,21.3,17.0,30.27,WNW,300,8.0,14.0,83,0.00,,---,0.00,VWS V14.01,2013-11-13 01:26:00,
2013-11-12 20:30:00,21.2,16.9,30.27,WNW,293,7.0,13.0,83,0.00,,---,0.00,VWS V14.01,2013-11-13 01:30:00,
2013-11-12 20:31:00,21.2,16.9,30.27,WNW,293,7.0,13.0,83,0.00,,---,0.00,VWS V14.01,2013-11-13 01:31:00,
2013-11-12 20:35:00,21.0,16.7,30.27,NW,314,5.0,12.0,83,0.00,,---,0.00,VWS V14.01,2013-11-13 01:35:00,
2013-11-12 20:36:00,21.0,16.7,30.27,NW,314,5.0,12.0,83,0.00,,---,0.00,VWS V14.01,2013-11-13 01:36:00,
2013-11-12 20:40:00,20.9,16.6,30.26,NW,308,12.0,17.0,83,0.00,,---,0.00,VWS V14.01,2013-11-13 01:40:00,
2013-11-12 20:41:00,20.9,16.6,30.26,NW,308,12.0,17.0,83,0.00,,---,0.00,VWS V14.01,2013-11-13 01:41:00,
2013-11-12 20:45:00,20.9,16.6,30.26,WNW,300,10.0,16.0,83,0.00,,---,0.00,VWS V14.01,2013-11-13 01:45:00,
2013-11-12 20:46:00,20.9,16.6,30.26,WNW,300,10.0,16.0,83,0.00,,---,0.00,VWS V14.01,2013-11-13 01:46:00,
2013-11-12 20:50:00,20.8,16.5,30.26,WNW,298,6.0,16.0,83,0.00,,---,0.00,VWS V14.01,2013-11-13 01:50:00,
2013-11-12 20:51:00,20.8,16.5,30.26,WNW,298,6.0,16.0,83,0.00,,---,0.00,VWS V14.01,2013-11-13 01:51:00,
2013-11-12 20:55:00,20.8,16.5,30.26,WNW,297,12.0,17.0,83,0.00,,---,0.00,VWS V14.01,2013-11-13 01:55:00,
2013-11-12 20:56:00,20.8,16.5,30.26,WNW,297,12.0,17.0,83,0.00,,---,0.00,VWS V14.01,2013-11-13 01:56:00,
2013-11-12 21:00:00,20.7,16.4,30.26,WNW,297,10.0,17.0,83,0.00,,---,0.00,VWS V14.01,2013-11-13 02:00:00,
2013-11-12 21:01:00,20.7,16.4,30.26,WNW,297,10.0,17.0,83,0.00,,---,0.00,VWS V14.01,2013-11-13 02:01:00,
2013-11-12 21:05:00,20.7,16.4,30.27,West,267,16.0,17.0,83,0.00,,---,0.00,VWS V14.01,2013-11-13 02:05:00,
2013-11-12 21:06:00,20.7,16.4,30.27,West,267,16.0,17.0,83,0.00,,---,0.00,VWS V14.01,2013-11-13 02:06:00,
2013-11-12 21:10:00,20.6,16.3,30.27,West,263,9.0,17.0,83,0.00,,---,0.00,VWS V14.01,2013-11-13 02:10:00,
2013-11-12 21:11:00,20.6,16.3,30.27,West,263,9.0,17.0,83,0.00,,---,0.00,VWS V14.01,2013-11-13 02:11:00,
2013-11-12 21:15:00,20.4,16.1,30.26,WNW,298,9.0,14.0,83,0.00,,---,0.00,VWS V14.01,2013-11-13 02:15:00,
2013-11-12 21:16:00,20.4,16.1,30.26,WNW,298,9.0,14.0,83,0.00,,---,0.00,VWS V14.01,2013-11-13 02:16:00,
2013-11-12 21:20:00,20.4,16.1,30.26,NW,315,9.0,20.0,83,0.00,,---,0.00,VWS V14.01,2013-11-13 02:20:00,
2013-11-12 21:21:00,20.4,16.1,30.26,NW,315,9.0,20.0,83,0.00,,---,0.00,VWS V14.01,2013-11-13 02:21:00,
2013-11-12 21:25:00,20.3,16.0,30.27,WNW,301,10.0,16.0,83,0.00,,---,0.00,VWS V14.01,2013-11-13 02:25:00,
2013-11-12 21:26:00,20.3,16.0,30.27,WNW,301,10.0,16.0,83,0.00,,---,0.00,VWS V14.01,2013-11-13 02:26:00,
2013-11-12 21:30:00,20.4,16.1,30.26,WNW,295,8.0,19.0,83,0.00,,---,0.00,VWS V14.01,2013-11-13 02:30:00,
2013-11-12 21:31:00,20.4,16.1,30.26,WNW,295,8.0,19.0,83,0.00,,---,0.00,VWS V14.01,2013-11-13 02:31:00,
2013-11-12 21:35:00,20.4,16.1,30.26,West,269,15.0,17.0,83,0.00,,---,0.00,VWS V14.01,2013-11-13 02:35:00,
2013-11-12 21:36:00,20.4,16.1,30.26,West,269,15.0,17.0,83,0.00,,---,0.00,VWS V14.01,2013-11-13 02:36:00,
2013-11-12 21:40:00,20.5,16.2,30.26,WNW,301,10.0,21.0,83,0.00,,---,0.00,VWS V14.01,2013-11-13 02:40:00,
2013-11-12 21:41:00,20.5,16.2,30.26,WNW,301,10.0,21.0,83,0.00,,---,0.00,VWS V14.01,2013-11-13 02:41:00,
2013-11-12 21:45:00,20.4,16.4,30.25,WNW,293,7.0,16.0,84,0.00,,---,0.00,VWS V14.01,2013-11-13 02:45:00,
2013-11-12 21:46:00,20.4,16.4,30.25,WNW,293,7.0,16.0,84,0.00,,---,0.00,VWS V14.01,2013-11-13 02:46:00,
2013-11-12 21:50:00,20.4,16.4,30.26,WNW,297,17.0,22.0,84,0.00,,---,0.00,VWS V14.01,2013-11-13 02:50:00,
2013-11-12 21:51:00,20.4,16.4,30.26,WNW,297,17.0,22.0,84,0.00,,---,0.00,VWS V14.01,2013-11-13 02:51:00,
2013-11-12 21:55:00,20.4,16.4,30.26,WNW,291,9.0,19.0,84,0.00,,---,0.00,VWS V14.01,2013-11-13 02:55:00,
2013-11-12 21:56:00,20.4,16.4,30.26,WNW,291,9.0,19.0,84,0.00,,---,0.00,VWS V14.01,2013-11-13 02:56:00,
2013-11-12 22:00:00,20.2,16.1,30.26,NNW,333,9.0,13.0,84,0.00,,---,0.00,VWS V14.01,2013-11-13 03:00:00,
2013-11-12 22:01:00,20.2,16.1,30.26,NNW,333,9.0,13.0,84,0.00,,---,0.00,VWS V14.01,2013-11-13 03:01:00,
2013-11-12 22:05:00,20.2,16.4,30.26,WNW,297,7.0,12.0,85,0.00,,---,0.00,VWS V14.01,2013-11-13 03:05:00,
2013-11-12 22:10:00,20.3,16.5,30.26,WNW,293,7.0,18.0,85,0.00,,---,0.00,VWS V14.01,2013-11-13 03:10:00,
2013-11-12 22:11:00,20.3,16.5,30.26,WNW,293,7.0,18.0,85,0.00,,---,0.00,VWS V14.01,2013-11-13 03:11:00,
2013-11-12 22:15:00,20.3,16.2,30.26,WNW,297,12.0,19.0,84,0.00,,---,0.00,VWS V14.01,2013-11-13 03:15:00,
2013-11-12 22:16:00,20.3,16.2,30.26,WNW,297,12.0,19.0,84,0.00,,---,0.00,VWS V14.01,2013-11-13 03:16:00,
2013-11-12 22:20:00,20.2,16.4,30.27,NW,319,10.0,20.0,85,0.00,,---,0.00,VWS V14.01,2013-11-13 03:20:00,
2013-11-12 22:21:00,20.2,16.4,30.27,NW,319,10.0,20.0,85,0.00,,---,0.00,VWS V14.01,2013-11-13 03:21:00,
2013-11-12 22:25:00,20.1,16.3,30.27,NW,307,10.0,15.0,85,0.00,,---,0.00,VWS V14.01,2013-11-13 03:25:00,
2013-11-12 22:26:00,20.1,16.3,30.27,NW,307,10.0,15.0,85,0.00,,---,0.00,VWS V14.01,2013-11-13 03:26:00,
2013-11-12 22:30:00,20.1,16.3,30.27,WNW,297,14.0,17.0,85,0.00,,---,0.00,VWS V14.01,2013-11-13 03:30:00,
2013-11-12 22:31:00,20.1,16.3,30.27,WNW,297,14.0,17.0,85,0.00,,---,0.00,VWS V14.01,2013-11-13 03:31:00,
2013-11-12 22:35:00,20.1,16.3,30.27,NW,308,9.0,16.0,85,0.00,,---,0.00,VWS V14.01,2013-11-13 03:35:00,
2013-11-12 22:36:00,20.1,16.3,30.27,NW,308,9.0,16.0,85,0.00,,---,0.00,VWS V14.01,2013-11-13 03:36:00,
2013-11-12 22:40:00,20.2,16.7,30.27,NW,305,5.0,15.0,86,0.00,,---,0.00,VWS V14.01,2013-11-13 03:40:00,
2013-11-12 22:41:00,20.2,16.7,30.27,NW,305,5.0,15.0,86,0.00,,---,0.00,VWS V14.01,2013-11-13 03:41:00,
2013-11-12 22:45:00,20.2,16.7,30.27,NW,319,8.0,12.0,86,0.00,,---,0.00,VWS V14.01,2013-11-13 03:45:00,
2013-11-12 22:46:00,20.2,16.7,30.27,NW,319,8.0,12.0,86,0.00,,---,0.00,VWS V14.01,2013-11-13 03:46:00,
2013-11-12 22:50:00,20.3,16.8,30.27,WNW,300,9.0,12.0,86,0.00,,---,0.00,VWS V14.01,2013-11-13 03:50:00,
2013-11-12 22:51:00,20.3,16.8,30.27,WNW,300,9.0,12.0,86,0.00,,---,0.00,VWS V14.01,2013-11-13 03:51:00,
2013-11-12 22:55:00,20.3,16.8,30.27,WNW,284,11.0,16.0,86,0.00,,---,0.00,VWS V14.01,2013-11-13 03:55:00,
2013-11-12 22:56:00,20.3,16.8,30.27,WNW,284,11.0,16.0,86,0.00,,---,0.00,VWS V14.01,2013-11-13 03:56:00,
2013-11-12 23:00:00,20.3,16.8,30.27,NW,322,15.0,18.0,86,0.00,,---,0.00,VWS V14.01,2013-11-13 04:00:00,
2013-11-12 23:01:00,20.3,16.8,30.27,NW,322,15.0,18.0,86,0.00,,---,0.00,VWS V14.01,2013-11-13 04:01:00,
2013-11-12 23:05:00,20.3,17.1,30.27,WNW,300,12.0,17.0,87,0.00,,---,0.00,VWS V14.01,2013-11-13 04:05:00,
2013-11-12 23:10:00,20.3,17.1,30.27,WNW,301,9.0,15.0,87,0.00,,---,0.00,VWS V14.01,2013-11-13 04:10:00,
2013-11-12 23:11:00,20.3,17.1,30.27,WNW,301,9.0,15.0,87,0.00,,---,0.00,VWS V14.01,2013-11-13 04:11:00,
2013-11-12 23:15:00,20.3,17.1,30.27,WNW,293,13.0,18.0,87,0.00,,---,0.00,VWS V14.01,2013-11-13 04:15:00,
2013-11-12 23:16:00,20.3,17.1,30.27,WNW,293,13.0,18.0,87,0.00,,---,0.00,VWS V14.01,2013-11-13 04:16:00,
2013-11-12 23:20:00,20.3,17.1,30.28,NW,314,9.0,15.0,87,0.00,,---,0.00,VWS V14.01,2013-11-13 04:20:00,
2013-11-12 23:21:00,20.3,17.1,30.28,NW,314,9.0,15.0,87,0.00,,---,0.00,VWS V14.01,2013-11-13 04:21:00,
2013-11-12 23:25:00,20.3,17.1,30.27,WNW,287,6.0,14.0,87,0.00,,---,0.00,VWS V14.01,2013-11-13 04:25:00,
2013-11-12 23:26:00,20.3,17.1,30.27,WNW,287,6.0,14.0,87,0.00,,---,0.00,VWS V14.01,2013-11-13 04:26:00,
2013-11-12 23:30:00,20.2,17.2,30.27,WNW,291,10.0,18.0,88,0.00,,---,0.00,VWS V14.01,2013-11-13 04:30:00,
2013-11-12 23:31:00,20.2,17.2,30.27,WNW,291,10.0,18.0,88,0.00,,---,0.00,VWS V14.01,2013-11-13 04:31:00,
2013-11-12 23:35:00,20.1,16.6,30.28,WNW,297,13.0,22.0,86,0.00,,---,0.00,VWS V14.01,2013-11-13 04:35:00,
2013-11-12 23:36:00,20.1,16.6,30.28,WNW,297,13.0,22.0,86,0.00,,---,0.00,VWS V14.01,2013-11-13 04:36:00,
2013-11-12 23:40:00,19.8,16.0,30.28,NW,313,6.0,15.0,85,0.00,,---,0.00,VWS V14.01,2013-11-13 04:40:00,
2013-11-12 23:41:00,19.8,16.0,30.28,NW,313,6.0,15.0,85,0.00,,---,0.00,VWS V14.01,2013-11-13 04:41:00,
2013-11-12 23:45:00,19.6,14.7,30.28,NW,305,15.0,20.0,81,0.00,,---,0.00,VWS V14.01,2013-11-13 04:45:00,
2013-11-12 23:46:00,19.6,14.7,30.28,NW,305,15.0,20.0,81,0.00,,---,0.00,VWS V14.01,2013-11-13 04:46:00,
2013-11-12 23:50:00,19.4,14.2,30.28,WNW,298,10.0,18.0,80,0.00,,---,0.00,VWS V14.01,2013-11-13 04:50:00,
2013-11-12 23:51:00,19.4,14.2,30.28,WNW,298,10.0,18.0,80,0.00,,---,0.00,VWS V14.01,2013-11-13 04:51:00,
2013-11-12 23:55:00,19.2,14.1,30.28,NW,305,9.0,17.0,80,0.00,,---,0.00,VWS V14.01,2013-11-13 04:55:00,
2013-11-12 23:56:00,19.2,14.1,30.28,NW,305,9.0,17.0,80,0.00,,---,0.00,VWS V14.01,2013-11-13 04:56:00,